createdAt,value
2022-11-02T00:01:46.526Z,9.80
2022-11-02T00:05:48.525Z,9.80
2022-11-02T00:09:50.382Z,9.70
2022-11-02T00:13:52.298Z,9.70
2022-11-02T00:17:57.199Z,9.70
2022-11-02T00:22:01.921Z,9.60
2022-11-02T00:26:03.838Z,9.60
2022-11-02T00:30:06.651Z,9.50
2022-11-02T00:34:08.623Z,9.50
2022-11-02T00:38:12.846Z,9.50
2022-11-02T00:42:14.991Z,9.40
2022-11-02T00:46:21.065Z,9.40
2022-11-02T00:50:23.005Z,9.30
2022-11-02T00:54:28.616Z,9.30
2022-11-02T00:58:30.628Z,9.20
2022-11-02T01:02:36.038Z,9.20
2022-11-02T01:06:38.045Z,9.20
2022-11-02T01:10:42.759Z,9.10
2022-11-02T01:14:50.494Z,9.10
2022-11-02T01:18:53.985Z,9.10
2022-11-02T01:22:58.103Z,9.00
2022-11-02T01:27:00.100Z,9.00
2022-11-02T01:31:02.157Z,9.00
2022-11-02T01:35:04.395Z,8.90
2022-11-02T01:39:06.525Z,8.80
2022-11-02T01:43:28.048Z,8.80
2022-11-02T01:47:37.965Z,8.70
2022-11-02T01:52:02.449Z,8.70
2022-11-02T01:56:05.092Z,8.60
2022-11-02T02:00:11.561Z,8.60
2022-11-02T02:04:13.685Z,8.50
2022-11-02T02:08:19.471Z,8.50
2022-11-02T02:12:23.844Z,8.50
2022-11-02T02:16:56.819Z,8.50
2022-11-02T02:21:16.621Z,8.40
2022-11-02T02:26:05.160Z,8.40
2022-11-02T02:30:10.620Z,8.40
2022-11-02T02:34:20.158Z,8.40
2022-11-02T02:38:55.507Z,8.30
2022-11-02T02:43:05.450Z,8.30
2022-11-02T02:47:17.620Z,8.30
2022-11-02T02:51:28.902Z,8.30
2022-11-02T02:55:34.601Z,8.30
2022-11-02T02:59:46.756Z,8.30
2022-11-02T03:03:54.934Z,8.20
2022-11-02T03:08:07.146Z,8.20
2022-11-02T03:12:34.963Z,8.20
2022-11-02T03:17:51.940Z,8.10
2022-11-02T03:22:09.058Z,8.10
2022-11-02T03:26:23.544Z,8.10
2022-11-02T03:30:27.945Z,8.10
2022-11-02T03:34:43.738Z,8.00
2022-11-02T03:39:02.313Z,8.10
2022-11-02T03:43:09.035Z,8.10
2022-11-02T03:47:12.853Z,8.10
2022-11-02T03:51:23.621Z,8.10
2022-11-02T03:56:20.348Z,8.10
2022-11-02T04:00:26.702Z,8.10
2022-11-02T04:04:28.894Z,8.10
2022-11-02T04:08:36.819Z,8.10
2022-11-02T04:12:57.309Z,8.10
2022-11-02T04:17:17.695Z,8.00
2022-11-02T04:21:19.567Z,8.00
2022-11-02T04:25:21.506Z,8.00
2022-11-02T04:29:23.413Z,8.00
2022-11-02T04:33:34.662Z,8.00
2022-11-02T04:37:59.310Z,7.90
2022-11-02T04:42:01.094Z,8.00
2022-11-02T04:46:02.836Z,8.00
2022-11-02T04:50:05.348Z,8.00
2022-11-02T04:54:07.547Z,7.90
2022-11-02T04:58:09.480Z,7.90
2022-11-02T05:02:11.756Z,7.90
2022-11-02T05:06:13.689Z,7.90
2022-11-02T05:10:46.936Z,7.90
2022-11-02T05:14:48.753Z,7.90
2022-11-02T05:18:50.627Z,7.90
2022-11-02T05:22:52.589Z,7.90
2022-11-02T05:26:54.442Z,7.80
2022-11-02T05:30:59.314Z,7.70
2022-11-02T05:35:01.284Z,7.70
2022-11-02T05:39:05.987Z,7.70
2022-11-02T05:43:10.030Z,7.70
2022-11-02T05:47:11.887Z,7.60
2022-11-02T05:51:13.754Z,7.60
2022-11-02T05:55:15.749Z,7.60
2022-11-02T05:59:17.700Z,7.70
2022-11-02T06:03:20.409Z,7.70
2022-11-02T06:07:23.115Z,7.70
2022-11-02T06:11:27.623Z,7.70
2022-11-02T06:15:33.855Z,7.70
2022-11-02T06:19:44.531Z,7.80
2022-11-02T06:24:04.071Z,7.90
2022-11-02T06:28:06.178Z,7.90
2022-11-02T06:32:11.086Z,7.90
2022-11-02T06:36:28.644Z,8.00
2022-11-02T06:40:30.509Z,8.20
2022-11-02T06:44:32.368Z,8.50
2022-11-02T06:48:35.454Z,8.80
2022-11-02T06:52:44.106Z,9.10
2022-11-02T06:56:46.497Z,9.60
2022-11-02T07:00:48.537Z,9.90
2022-11-02T07:04:50.517Z,10.00
2022-11-02T07:08:52.384Z,10.00
2022-11-02T07:12:55.517Z,10.20
2022-11-02T07:16:57.380Z,10.20
2022-11-02T07:20:59.971Z,10.10
2022-11-02T07:25:01.911Z,10.10
2022-11-02T07:29:03.989Z,10.20
2022-11-02T07:33:06.340Z,10.60
2022-11-02T07:37:25.662Z,11.00
2022-11-02T07:41:27.634Z,11.40
2022-11-02T07:45:49.064Z,11.70
2022-11-02T07:49:59.829Z,12.10
2022-11-02T07:54:24.284Z,12.50
2022-11-02T07:58:27.035Z,12.70
2022-11-02T08:02:28.977Z,12.90
2022-11-02T08:06:30.931Z,13.10
2022-11-02T08:10:37.083Z,13.40
2022-11-02T08:14:56.637Z,13.70
2022-11-02T08:19:01.604Z,14.00
2022-11-02T08:23:04.248Z,13.80
2022-11-02T08:27:06.450Z,13.90
2022-11-02T08:31:16.805Z,13.90
2022-11-02T08:35:18.773Z,13.90
2022-11-02T08:39:20.730Z,14.20
2022-11-02T08:43:25.162Z,14.50
2022-11-02T08:47:27.076Z,14.90
2022-11-02T08:51:29.829Z,15.30
2022-11-02T08:55:32.004Z,15.50
2022-11-02T08:59:33.854Z,15.70
2022-11-02T09:03:35.835Z,15.90
2022-11-02T09:07:38.027Z,16.10
2022-11-02T09:11:40.112Z,16.00
2022-11-02T09:15:42.458Z,16.10
2022-11-02T09:19:44.397Z,16.10
2022-11-02T09:23:50.547Z,16.20
2022-11-02T09:27:58.967Z,16.40
2022-11-02T09:32:00.944Z,16.50
2022-11-02T09:36:04.774Z,16.40
2022-11-02T09:40:07.218Z,16.40
2022-11-02T09:44:16.818Z,16.50
2022-11-02T09:48:39.243Z,16.60
2022-11-02T09:52:41.138Z,16.70
2022-11-02T09:56:43.118Z,16.60
2022-11-02T10:01:07.672Z,16.70
2022-11-02T10:05:27.568Z,16.90
2022-11-02T10:09:50.604Z,16.90
2022-11-02T10:14:06.171Z,16.70
2022-11-02T10:18:13.867Z,16.60
2022-11-02T10:22:25.261Z,16.40
2022-11-02T10:31:27.476Z,16.40
2022-11-02T10:42:36.529Z,17.20
2022-11-02T11:25:28.229Z,17.20
2022-11-02T11:30:59.904Z,17.40
2022-11-02T11:35:16.733Z,17.10
2022-11-02T11:39:43.766Z,16.80
2022-11-02T11:48:53.376Z,16.70
2022-11-02T11:58:40.883Z,16.50
2022-11-02T12:09:46.649Z,16.60
2022-11-02T12:14:06.910Z,16.80
2022-11-02T12:18:32.941Z,16.90
2022-11-02T12:22:58.988Z,16.90
2022-11-02T12:27:30.797Z,16.80
2022-11-02T12:32:10.278Z,16.90
2022-11-02T12:37:10.326Z,16.90
2022-11-02T12:41:13.258Z,17.00
2022-11-02T12:46:37.007Z,16.80
2022-11-02T12:51:29.197Z,16.60
2022-11-02T12:55:55.648Z,16.70
2022-11-02T13:00:28.180Z,16.60
2022-11-02T13:05:05.777Z,16.70
2022-11-02T13:09:16.512Z,16.80
2022-11-02T13:13:40.219Z,16.60
2022-11-02T13:18:00.800Z,16.50
2022-11-02T13:22:04.069Z,16.60
2022-11-02T13:26:42.585Z,16.60
2022-11-02T13:31:13.256Z,16.50
2022-11-02T13:35:50.537Z,16.50
2022-11-02T13:46:22.606Z,16.40
2022-11-02T13:57:24.056Z,16.10
2022-11-02T15:16:51.376Z,14.70
2022-11-02T15:21:19.407Z,14.60
2022-11-02T15:25:26.831Z,14.40
2022-11-02T15:29:51.581Z,14.40
2022-11-02T15:34:03.879Z,14.20
2022-11-02T15:38:27.982Z,14.10
2022-11-02T15:43:20.947Z,14.00
2022-11-02T15:47:33.393Z,13.90
2022-11-02T15:52:18.065Z,13.80
2022-11-02T15:56:34.258Z,13.60
2022-11-02T16:00:36.233Z,13.60
2022-11-02T16:04:42.179Z,13.50
2022-11-02T16:08:44.961Z,13.50
2022-11-02T16:13:07.915Z,13.50
2022-11-02T16:17:31.134Z,13.50
2022-11-02T16:26:51.884Z,13.30
2022-11-02T16:32:34.537Z,13.10
2022-11-02T16:36:47.584Z,13.00
2022-11-02T16:40:49.732Z,12.80
2022-11-02T16:45:00.848Z,12.70
2022-11-02T16:49:24.165Z,12.60
2022-11-02T16:54:03.195Z,12.50
2022-11-02T16:58:27.258Z,12.30
2022-11-02T17:02:41.003Z,12.20
2022-11-02T17:06:43.144Z,12.10
2022-11-02T17:10:46.297Z,12.00
2022-11-02T17:14:48.702Z,12.00
2022-11-02T17:18:50.634Z,11.90
2022-11-02T17:23:09.196Z,11.80
2022-11-02T17:27:39.150Z,11.70
2022-11-02T17:31:46.890Z,11.60
2022-11-02T17:35:54.643Z,11.50
2022-11-02T17:40:17.007Z,11.40
2022-11-02T17:44:46.919Z,11.40
2022-11-02T17:54:57.194Z,11.20
2022-11-02T17:59:11.312Z,11.20
2022-11-02T18:03:29.896Z,11.10
2022-11-02T18:08:00.000Z,11.10
2022-11-02T18:12:21.405Z,11.00
2022-11-02T18:17:22.309Z,10.90
2022-11-02T18:21:37.573Z,10.90
2022-11-02T18:25:59.332Z,10.80
2022-11-02T18:30:04.846Z,10.80
2022-11-02T18:34:28.548Z,10.80
2022-11-02T18:38:39.568Z,10.80
2022-11-02T18:47:28.312Z,10.70
2022-11-02T19:32:11.830Z,10.50
2022-11-02T19:42:10.518Z,10.30
2022-11-02T19:47:58.385Z,10.30
2022-11-02T21:36:44.627Z,9.10
2022-11-02T21:40:49.072Z,9.00
2022-11-02T21:45:01.663Z,8.90
2022-11-02T21:49:15.121Z,8.90
2022-11-02T21:53:20.779Z,8.80
2022-11-02T21:57:22.867Z,8.70
2022-11-02T22:01:50.822Z,8.70
2022-11-02T22:05:58.149Z,8.60
2022-11-02T22:14:29.358Z,8.40
2022-11-02T22:18:35.899Z,8.40
2022-11-02T22:22:37.801Z,8.20
2022-11-02T22:26:39.970Z,8.10
2022-11-02T22:30:41.918Z,8.00
2022-11-02T22:34:54.898Z,7.90
2022-11-02T22:39:13.913Z,7.80
2022-11-02T22:43:15.814Z,7.80
2022-11-02T22:47:17.980Z,7.70
2022-11-02T22:51:21.092Z,7.70
2022-11-02T22:55:24.207Z,7.60
2022-11-02T22:59:34.961Z,7.60
2022-11-02T23:03:37.118Z,7.60
2022-11-02T23:07:39.092Z,7.60
2022-11-02T23:11:43.160Z,7.50
2022-11-02T23:15:45.155Z,7.50
2022-11-02T23:19:47.076Z,7.50
2022-11-02T23:24:09.547Z,7.60
2022-11-02T23:28:29.919Z,7.50
2022-11-02T23:32:32.119Z,7.50
2022-11-02T23:36:36.994Z,7.50
2022-11-02T23:40:42.617Z,7.50
2022-11-02T23:44:50.835Z,7.40
2022-11-02T23:48:54.985Z,7.40
2022-11-02T23:53:15.382Z,7.40
2022-11-02T23:57:18.643Z,7.40
